sensor_id;sensor_type;location;lat;lon;timestamp;pressure;altitude;pressure_sealevel;temperature
65316;BMP280;51920;53.952;10.292;2023-06-14T00:01:15;101556.88;;;14.38
65316;BMP280;51920;53.952;10.292;2023-06-14T00:03:43;101550.59;;;14.31
65316;BMP280;51920;53.952;10.292;2023-06-14T00:06:10;101545.97;;;14.24
65316;BMP280;51920;53.952;10.292;2023-06-14T00:08:37;101547.09;;;14.27
65316;BMP280;51920;53.952;10.292;2023-06-14T00:11:04;101550.59;;;14.31
65316;BMP280;51920;53.952;10.292;2023-06-14T00:13:31;101550.59;;;14.24
65316;BMP280;51920;53.952;10.292;2023-06-14T00:15:58;101546.69;;;14.25
65316;BMP280;51920;53.952;10.292;2023-06-14T00:18:25;101551.41;;;14.28
65316;BMP280;51920;53.952;10.292;2023-06-14T00:20:55;101549.84;;;14.23
65316;BMP280;51920;53.952;10.292;2023-06-14T00:23:22;101555.28;;;14.23
65316;BMP280;51920;53.952;10.292;2023-06-14T00:25:49;101557.59;;;14.25
65316;BMP280;51920;53.952;10.292;2023-06-14T00:28:16;101555.28;;;14.27
65316;BMP280;51920;53.952;10.292;2023-06-14T00:30:43;101561.13;;;14.29
65316;BMP280;51920;53.952;10.292;2023-06-14T00:33:13;101561.50;;;14.24
65316;BMP280;51920;53.952;10.292;2023-06-14T00:35:42;101561.09;;;14.18
65316;BMP280;51920;53.952;10.292;2023-06-14T00:38:09;101560.66;;;14.12
65316;BMP280;51920;53.952;10.292;2023-06-14T00:40:36;101563.78;;;14.11
65316;BMP280;51920;53.952;10.292;2023-06-14T00:43:03;101567.66;;;14.13
65316;BMP280;51920;53.952;10.292;2023-06-14T00:45:30;101563.03;;;14.14
65316;BMP280;51920;53.952;10.292;2023-06-14T00:47:58;101568.06;;;14.05
65316;BMP280;51920;53.952;10.292;2023-06-14T00:50:25;101575.41;;;14.01
65316;BMP280;51920;53.952;10.292;2023-06-14T00:52:52;101573.47;;;14.01
65316;BMP280;51920;53.952;10.292;2023-06-14T00:55:19;101579.75;;;14.05
65316;BMP280;51920;53.952;10.292;2023-06-14T00:57:48;101584.44;;;14.12
65316;BMP280;51920;53.952;10.292;2023-06-14T01:00:16;101580.47;;;13.99
65316;BMP280;51920;53.952;10.292;2023-06-14T01:02:43;101577.75;;;13.99
65316;BMP280;51920;53.952;10.292;2023-06-14T01:05:10;101576.56;;;14.00
65316;BMP280;51920;53.952;10.292;2023-06-14T01:11:03;101577.72;;;13.95
65316;BMP280;51920;53.952;10.292;2023-06-14T01:13:35;101578.84;;;13.90
65316;BMP280;51920;53.952;10.292;2023-06-14T01:16:03;101586.63;;;13.88
65316;BMP280;51920;53.952;10.292;2023-06-14T01:18:31;101585.88;;;13.95
65316;BMP280;51920;53.952;10.292;2023-06-14T01:21:01;101589.34;;;13.88
65316;BMP280;51920;53.952;10.292;2023-06-14T01:23:32;101590.91;;;13.86
65316;BMP280;51920;53.952;10.292;2023-06-14T01:26:01;101589.31;;;13.81
65316;BMP280;51920;53.952;10.292;2023-06-14T01:28:31;101588.94;;;13.79
65316;BMP280;51920;53.952;10.292;2023-06-14T01:31:01;101594.00;;;13.84
65316;BMP280;51920;53.952;10.292;2023-06-14T01:33:33;101587.84;;;13.91
65316;BMP280;51920;53.952;10.292;2023-06-14T01:36:01;101577.69;;;13.84
65316;BMP280;51920;53.952;10.292;2023-06-14T01:38:30;101586.22;;;13.83
65316;BMP280;51920;53.952;10.292;2023-06-14T01:40:58;101580.34;;;13.81
65316;BMP280;51920;53.952;10.292;2023-06-14T01:43:26;101581.53;;;13.87
65316;BMP280;51920;53.952;10.292;2023-06-14T01:45:55;101580.41;;;13.88
65316;BMP280;51920;53.952;10.292;2023-06-14T01:48:23;101587.84;;;13.91
65316;BMP280;51920;53.952;10.292;2023-06-14T01:50:50;101585.44;;;13.82
65316;BMP280;51920;53.952;10.292;2023-06-14T01:53:19;101590.16;;;13.85
65316;BMP280;51920;53.952;10.292;2023-06-14T01:55:47;101588.16;;;13.79
65316;BMP280;51920;53.952;10.292;2023-06-14T01:58:15;101586.19;;;13.79
65316;BMP280;51920;53.952;10.292;2023-06-14T02:00:45;101593.97;;;13.77
65316;BMP280;51920;53.952;10.292;2023-06-14T02:03:14;101590.91;;;13.86
65316;BMP280;51920;53.952;10.292;2023-06-14T02:05:41;101596.31;;;13.79
65316;BMP280;51920;53.952;10.292;2023-06-14T02:08:08;101588.53;;;13.77
65316;BMP280;51920;53.952;10.292;2023-06-14T02:10:36;101590.03;;;13.71
65316;BMP280;51920;53.952;10.292;2023-06-14T02:13:03;101593.97;;;13.77
65316;BMP280;51920;53.952;10.292;2023-06-14T02:15:30;101581.88;;;13.74
65316;BMP280;51920;53.952;10.292;2023-06-14T02:18:04;101585.34;;;13.68
65316;BMP280;51920;53.952;10.292;2023-06-14T02:20:32;101583.38;;;13.65
65316;BMP280;51920;53.952;10.292;2023-06-14T02:23:00;101577.63;;;13.73
65316;BMP280;51920;53.952;10.292;2023-06-14T02:25:30;101578.72;;;13.65
65316;BMP280;51920;53.952;10.292;2023-06-14T02:27:56;101575.97;;;13.62
65316;BMP280;51920;53.952;10.292;2023-06-14T02:30:23;101571.72;;;13.68
65316;BMP280;51920;53.952;10.292;2023-06-14T02:32:50;101576.75;;;13.62
65316;BMP280;51920;53.952;10.292;2023-06-14T02:35:17;101579.53;;;13.66
65316;BMP280;51920;53.952;10.292;2023-06-14T02:37:44;101571.34;;;13.66
65316;BMP280;51920;53.952;10.292;2023-06-14T02:40:11;101568.19;;;13.60
65316;BMP280;51920;53.952;10.292;2023-06-14T02:42:39;101572.84;;;13.60
65316;BMP280;51920;53.952;10.292;2023-06-14T02:45:06;101575.91;;;13.54
65316;BMP280;51920;53.952;10.292;2023-06-14T02:47:33;101575.53;;;13.52
65316;BMP280;51920;53.952;10.292;2023-06-14T02:50:00;101576.69;;;13.51
65316;BMP280;51920;53.952;10.292;2023-06-14T02:52:28;101582.97;;;13.59
65316;BMP280;51920;53.952;10.292;2023-06-14T02:54:55;101586.84;;;13.62
65316;BMP280;51920;53.952;10.292;2023-06-14T02:57:22;101589.94;;;13.57
65316;BMP280;51920;53.952;10.292;2023-06-14T02:59:50;101588.38;;;13.56
65316;BMP280;51920;53.952;10.292;2023-06-14T03:02:17;101591.09;;;13.56
65316;BMP280;51920;53.952;10.292;2023-06-14T03:04:44;101584.81;;;13.48
65316;BMP280;51920;53.952;10.292;2023-06-14T03:07:16;101594.19;;;13.50
65316;BMP280;51920;53.952;10.292;2023-06-14T03:09:48;101593.00;;;13.51
65316;BMP280;51920;53.952;10.292;2023-06-14T03:12:15;101593.44;;;13.53
65316;BMP280;51920;53.952;10.292;2023-06-14T03:14:43;101600.41;;;13.51
65316;BMP280;51920;53.952;10.292;2023-06-14T03:17:15;101595.31;;;13.49
65316;BMP280;51920;53.952;10.292;2023-06-14T03:19:44;101601.63;;;13.53
65316;BMP280;51920;53.952;10.292;2023-06-14T03:22:12;101608.56;;;13.47
65316;BMP280;51920;53.952;10.292;2023-06-14T03:24:40;101603.13;;;13.51
65316;BMP280;51920;53.952;10.292;2023-06-14T03:27:11;101604.66;;;13.48
65316;BMP280;51920;53.952;10.292;2023-06-14T03:29:42;101608.97;;;13.57
65316;BMP280;51920;53.952;10.292;2023-06-14T03:32:09;101612.88;;;13.56
65316;BMP280;51920;53.952;10.292;2023-06-14T03:34:38;101612.50;;;13.57
65316;BMP280;51920;53.952;10.292;2023-06-14T03:37:07;101615.66;;;13.63
65316;BMP280;51920;53.952;10.292;2023-06-14T03:39:34;101611.34;;;13.62
65316;BMP280;51920;53.952;10.292;2023-06-14T03:42:01;101613.34;;;13.65
65316;BMP280;51920;53.952;10.292;2023-06-14T03:44:28;101620.41;;;13.73
65316;BMP280;51920;53.952;10.292;2023-06-14T03:46:55;101626.66;;;13.81
65316;BMP280;51920;53.952;10.292;2023-06-14T03:49:22;101625.94;;;13.87
65316;BMP280;51920;53.952;10.292;2023-06-14T03:51:49;101622.41;;;13.83
65316;BMP280;51920;53.952;10.292;2023-06-14T03:54:20;101625.94;;;13.87
65316;BMP280;51920;53.952;10.292;2023-06-14T03:56:52;101625.16;;;13.90
65316;BMP280;51920;53.952;10.292;2023-06-14T03:59:18;101617.00;;;13.94
65316;BMP280;51920;53.952;10.292;2023-06-14T04:01:47;101621.38;;;14.06
65316;BMP280;51920;53.952;10.292;2023-06-14T04:04:15;101630.78;;;14.12
65316;BMP280;51920;53.952;10.292;2023-06-14T04:06:45;101639.34;;;14.21
65316;BMP280;51920;53.952;10.292;2023-06-14T04:09:15;101639.44;;;14.35
65316;BMP280;51920;53.952;10.292;2023-06-14T04:11:41;101637.47;;;14.39
65316;BMP280;51920;53.952;10.292;2023-06-14T04:14:08;101636.38;;;14.48
65316;BMP280;51920;53.952;10.292;2023-06-14T04:16:35;101638.72;;;14.53
65316;BMP280;51920;53.952;10.292;2023-06-14T04:19:02;101640.28;;;14.65
65316;BMP280;51920;53.952;10.292;2023-06-14T04:21:29;101642.63;;;14.73
65316;BMP280;51920;53.952;10.292;2023-06-14T04:23:58;101655.94;;;14.86
65316;BMP280;51920;53.952;10.292;2023-06-14T04:26:29;101649.72;;;14.85
65316;BMP280;51920;53.952;10.292;2023-06-14T04:28:56;101637.22;;;14.88
65316;BMP280;51920;53.952;10.292;2023-06-14T04:31:30;101661.44;;;15.07
65316;BMP280;51920;53.952;10.292;2023-06-14T04:34:00;101658.72;;;15.18
65316;BMP280;51920;53.952;10.292;2023-06-14T04:36:27;101664.19;;;15.39
65316;BMP280;51920;53.952;10.292;2023-06-14T04:38:54;101667.69;;;15.43
65316;BMP280;51920;53.952;10.292;2023-06-14T04:41:24;101668.47;;;15.44
65316;BMP280;51920;53.952;10.292;2023-06-14T04:43:58;101653.66;;;15.38
65316;BMP280;51920;53.952;10.292;2023-06-14T04:46:31;101673.53;;;15.74
65316;BMP280;51920;53.952;10.292;2023-06-14T04:48:58;101666.13;;;15.78
65316;BMP280;51920;53.952;10.292;2023-06-14T04:51:28;101669.19;;;16.02
65316;BMP280;51920;53.952;10.292;2023-06-14T04:54:00;101674.25;;;16.07
65316;BMP280;51920;53.952;10.292;2023-06-14T04:56:28;101672.63;;;16.17
65316;BMP280;51920;53.952;10.292;2023-06-14T04:58:56;101678.84;;;16.28
65316;BMP280;51920;53.952;10.292;2023-06-14T05:01:23;101683.06;;;16.43
65316;BMP280;51920;53.952;10.292;2023-06-14T05:03:50;101661.59;;;16.38
65316;BMP280;51920;53.952;10.292;2023-06-14T05:06:17;101660.34;;;16.61
65316;BMP280;51920;53.952;10.292;2023-06-14T05:08:47;101666.53;;;16.68
65316;BMP280;51920;53.952;10.292;2023-06-14T05:11:21;101692.94;;;17.00
65316;BMP280;51920;53.952;10.292;2023-06-14T05:13:50;101648.03;;;16.90
65316;BMP280;51920;53.952;10.292;2023-06-14T05:16:18;101678.66;;;17.23
65316;BMP280;51920;53.952;10.292;2023-06-14T05:18:45;101687.03;;;17.54
65316;BMP280;51920;53.952;10.292;2023-06-14T05:21:13;101666.38;;;17.45
65316;BMP280;51920;53.952;10.292;2023-06-14T05:23:44;101668.88;;;17.67
65316;BMP280;51920;53.952;10.292;2023-06-14T05:26:11;101673.44;;;17.81
65316;BMP280;51920;53.952;10.292;2023-06-14T05:28:38;101670.88;;;17.97
65316;BMP280;51920;53.952;10.292;2023-06-14T05:31:05;101685.38;;;18.32
65316;BMP280;51920;53.952;10.292;2023-06-14T05:33:31;101683.47;;;18.56
65316;BMP280;51920;53.952;10.292;2023-06-14T05:35:58;101692.56;;;18.53
65316;BMP280;51920;53.952;10.292;2023-06-14T05:38:25;101678.13;;;18.45
65316;BMP280;51920;53.952;10.292;2023-06-14T05:40:52;101691.88;;;18.42
65316;BMP280;51920;53.952;10.292;2023-06-14T05:43:19;101682.25;;;18.84
65316;BMP280;51920;53.952;10.292;2023-06-14T05:45:46;101696.16;;;19.00
65316;BMP280;51920;53.952;10.292;2023-06-14T05:48:13;101685.75;;;19.12
65316;BMP280;51920;53.952;10.292;2023-06-14T05:50:45;101685.88;;;19.04
65316;BMP280;51920;53.952;10.292;2023-06-14T05:53:15;101704.75;;;19.26
65316;BMP280;51920;53.952;10.292;2023-06-14T05:55:42;101682.69;;;19.30
65316;BMP280;51920;53.952;10.292;2023-06-14T05:58:13;101678.09;;;19.46
65316;BMP280;51920;53.952;10.292;2023-06-14T06:00:40;101708.13;;;19.57
65316;BMP280;51920;53.952;10.292;2023-06-14T06:03:06;101703.97;;;19.69
65316;BMP280;51920;53.952;10.292;2023-06-14T06:05:37;101709.94;;;19.67
65316;BMP280;51920;53.952;10.292;2023-06-14T06:08:04;101712.25;;;19.89
65316;BMP280;51920;53.952;10.292;2023-06-14T06:10:31;101709.00;;;19.94
65316;BMP280;51920;53.952;10.292;2023-06-14T06:12:57;101705.97;;;20.08
65316;BMP280;51920;53.952;10.292;2023-06-14T06:15:24;101720.72;;;20.54
65316;BMP280;51920;53.952;10.292;2023-06-14T06:17:51;101715.03;;;20.61
65316;BMP280;51920;53.952;10.292;2023-06-14T06:20:20;101699.53;;;20.84
65316;BMP280;51920;53.952;10.292;2023-06-14T06:22:47;101702.63;;;20.53
65316;BMP280;51920;53.952;10.292;2023-06-14T06:25:14;101709.19;;;20.76
65316;BMP280;51920;53.952;10.292;2023-06-14T06:27:41;101708.13;;;21.19
65316;BMP280;51920;53.952;10.292;2023-06-14T06:30:08;101708.50;;;21.33
65316;BMP280;51920;53.952;10.292;2023-06-14T06:32:35;101715.81;;;21.40
65316;BMP280;51920;53.952;10.292;2023-06-14T06:35:01;101700.38;;;21.14
65316;BMP280;51920;53.952;10.292;2023-06-14T06:37:28;101716.78;;;20.88
65316;BMP280;51920;53.952;10.292;2023-06-14T06:39:55;101717.94;;;21.03
65316;BMP280;51920;53.952;10.292;2023-06-14T06:42:21;101715.50;;;21.38
65316;BMP280;51920;53.952;10.292;2023-06-14T06:44:50;101718.91;;;21.59
65316;BMP280;51920;53.952;10.292;2023-06-14T06:47:16;101710.78;;;21.68
65316;BMP280;51920;53.952;10.292;2023-06-14T06:49:43;101714.94;;;21.72
65316;BMP280;51920;53.952;10.292;2023-06-14T06:52:10;101724.91;;;21.83
65316;BMP280;51920;53.952;10.292;2023-06-14T06:54:36;101734.72;;;21.71
65316;BMP280;51920;53.952;10.292;2023-06-14T06:57:03;101721.44;;;22.08
65316;BMP280;51920;53.952;10.292;2023-06-14T06:59:30;101736.25;;;22.14
65316;BMP280;51920;53.952;10.292;2023-06-14T07:01:57;101736.81;;;22.47
65316;BMP280;51920;53.952;10.292;2023-06-14T07:04:24;101733.81;;;22.41
65316;BMP280;51920;53.952;10.292;2023-06-14T07:06:50;101719.44;;;22.72
65316;BMP280;51920;53.952;10.292;2023-06-14T07:09:17;101727.06;;;22.68
65316;BMP280;51920;53.952;10.292;2023-06-14T07:11:47;101741.50;;;22.98
65316;BMP280;51920;53.952;10.292;2023-06-14T07:14:14;101746.16;;;23.23
65316;BMP280;51920;53.952;10.292;2023-06-14T07:16:40;101749.69;;;22.88
65316;BMP280;51920;53.952;10.292;2023-06-14T07:19:07;101753.09;;;23.05
65316;BMP280;51920;53.952;10.292;2023-06-14T07:21:35;101760.63;;;23.39
65316;BMP280;51920;53.952;10.292;2023-06-14T07:24:05;101752.63;;;23.41
65316;BMP280;51920;53.952;10.292;2023-06-14T07:26:32;101751.03;;;23.53
65316;BMP280;51920;53.952;10.292;2023-06-14T07:28:59;101750.38;;;23.71
65316;BMP280;51920;53.952;10.292;2023-06-14T07:31:26;101737.81;;;23.79
65316;BMP280;51920;53.952;10.292;2023-06-14T07:33:53;101753.34;;;23.77
65316;BMP280;51920;53.952;10.292;2023-06-14T07:36:20;101744.84;;;23.71
65316;BMP280;51920;53.952;10.292;2023-06-14T07:38:47;101759.44;;;23.94
65316;BMP280;51920;53.952;10.292;2023-06-14T07:41:13;101744.50;;;24.13
65316;BMP280;51920;53.952;10.292;2023-06-14T07:43:40;101740.59;;;24.10
65316;BMP280;51920;53.952;10.292;2023-06-14T07:46:07;101740.25;;;24.39
65316;BMP280;51920;53.952;10.292;2023-06-14T07:48:34;101757.84;;;24.46
65316;BMP280;51920;53.952;10.292;2023-06-14T07:51:01;101756.50;;;24.59
65316;BMP280;51920;53.952;10.292;2023-06-14T07:53:28;101760.69;;;24.82
65316;BMP280;51920;53.952;10.292;2023-06-14T07:55:54;101758.38;;;24.99
65316;BMP280;51920;53.952;10.292;2023-06-14T07:58:21;101759.94;;;25.00
65316;BMP280;51920;53.952;10.292;2023-06-14T08:00:48;101757.78;;;24.95
65316;BMP280;51920;53.952;10.292;2023-06-14T08:03:14;101752.84;;;24.81
65316;BMP280;51920;53.952;10.292;2023-06-14T08:05:42;101751.59;;;25.19
65316;BMP280;51920;53.952;10.292;2023-06-14T08:08:08;101744.84;;;25.01
65316;BMP280;51920;53.952;10.292;2023-06-14T08:10:37;101753.94;;;25.20
65316;BMP280;51920;53.952;10.292;2023-06-14T08:13:04;101745.50;;;24.47
65316;BMP280;51920;53.952;10.292;2023-06-14T08:15:31;101757.84;;;24.64
65316;BMP280;51920;53.952;10.292;2023-06-14T08:17:57;101755.72;;;24.59
65316;BMP280;51920;53.952;10.292;2023-06-14T08:20:26;101741.91;;;25.23
65316;BMP280;51920;53.952;10.292;2023-06-14T08:22:53;101743.44;;;25.24
65316;BMP280;51920;53.952;10.292;2023-06-14T08:25:23;101766.28;;;25.19
65316;BMP280;51920;53.952;10.292;2023-06-14T08:27:49;101764.38;;;25.53
65316;BMP280;51920;53.952;10.292;2023-06-14T08:30:16;101752.16;;;25.69
65316;BMP280;51920;53.952;10.292;2023-06-14T08:32:44;101761.91;;;26.06
65316;BMP280;51920;53.952;10.292;2023-06-14T08:35:10;101761.50;;;25.90
65316;BMP280;51920;53.952;10.292;2023-06-14T08:37:40;101752.66;;;25.03
65316;BMP280;51920;53.952;10.292;2023-06-14T08:40:19;101762.69;;;25.46
65316;BMP280;51920;53.952;10.292;2023-06-14T08:42:48;101753.91;;;25.11
65316;BMP280;51920;53.952;10.292;2023-06-14T08:45:16;101755.44;;;25.58
65316;BMP280;51920;53.952;10.292;2023-06-14T08:47:43;101757.31;;;25.24
65316;BMP280;51920;53.952;10.292;2023-06-14T08:50:12;101757.75;;;25.04
65316;BMP280;51920;53.952;10.292;2023-06-14T08:52:45;101764.63;;;25.82
65316;BMP280;51920;53.952;10.292;2023-06-14T08:55:16;101760.88;;;25.95
65316;BMP280;51920;53.952;10.292;2023-06-14T08:57:44;101751.66;;;25.89
65316;BMP280;51920;53.952;10.292;2023-06-14T09:00:12;101757.41;;;26.18
65316;BMP280;51920;53.952;10.292;2023-06-14T09:02:40;101764.75;;;26.30
65316;BMP280;51920;53.952;10.292;2023-06-14T09:05:10;101765.56;;;26.22
65316;BMP280;51920;53.952;10.292;2023-06-14T09:07:40;101752.81;;;26.06
65316;BMP280;51920;53.952;10.292;2023-06-14T09:10:13;101758.03;;;25.52
65316;BMP280;51920;53.952;10.292;2023-06-14T09:12:40;101767.06;;;25.90
65316;BMP280;51920;53.952;10.292;2023-06-14T09:15:07;101762.66;;;26.16
65316;BMP280;51920;53.952;10.292;2023-06-14T09:17:35;101759.88;;;26.16
65316;BMP280;51920;53.952;10.292;2023-06-14T09:20:03;101761.34;;;26.26
65316;BMP280;51920;53.952;10.292;2023-06-14T09:22:37;101760.88;;;26.28
65316;BMP280;51920;53.952;10.292;2023-06-14T09:25:04;101771.00;;;26.40
65316;BMP280;51920;53.952;10.292;2023-06-14T09:27:32;101774.25;;;26.39
65316;BMP280;51920;53.952;10.292;2023-06-14T09:30:00;101770.28;;;26.30
65316;BMP280;51920;53.952;10.292;2023-06-14T09:32:27;101774.41;;;25.59
65316;BMP280;51920;53.952;10.292;2023-06-14T09:34:54;101768.25;;;25.46
65316;BMP280;51920;53.952;10.292;2023-06-14T09:37:31;101779.00;;;25.72
65316;BMP280;51920;53.952;10.292;2023-06-14T09:39:58;101763.72;;;25.76
65316;BMP280;51920;53.952;10.292;2023-06-14T09:42:25;101767.44;;;25.64
65316;BMP280;51920;53.952;10.292;2023-06-14T09:44:56;101765.59;;;25.70
65316;BMP280;51920;53.952;10.292;2023-06-14T09:47:23;101765.13;;;25.72
65316;BMP280;51920;53.952;10.292;2023-06-14T09:49:51;101756.88;;;25.96
65316;BMP280;51920;53.952;10.292;2023-06-14T09:52:21;101752.59;;;25.76
65316;BMP280;51920;53.952;10.292;2023-06-14T09:54:49;101744.38;;;26.24
65316;BMP280;51920;53.952;10.292;2023-06-14T09:57:23;101763.84;;;26.24
65316;BMP280;51920;53.952;10.292;2023-06-14T09:59:53;101757.91;;;26.07
65316;BMP280;51920;53.952;10.292;2023-06-14T10:02:32;101757.69;;;26.20
65316;BMP280;51920;53.952;10.292;2023-06-14T10:05:08;101758.78;;;25.71
65316;BMP280;51920;53.952;10.292;2023-06-14T10:07:48;101748.84;;;25.28
65316;BMP280;51920;53.952;10.292;2023-06-14T10:10:15;101743.78;;;25.26
65316;BMP280;51920;53.952;10.292;2023-06-14T10:12:41;101739.84;;;25.61
65316;BMP280;51920;53.952;10.292;2023-06-14T10:15:10;101738.63;;;26.04
65316;BMP280;51920;53.952;10.292;2023-06-14T10:17:52;101755.31;;;25.95
65316;BMP280;51920;53.952;10.292;2023-06-14T10:23:10;101752.28;;;25.83
65316;BMP280;51920;53.952;10.292;2023-06-14T10:25:39;101756.91;;;25.87
65316;BMP280;51920;53.952;10.292;2023-06-14T10:30:39;101761.91;;;25.64
65316;BMP280;51920;53.952;10.292;2023-06-14T10:33:07;101753.09;;;25.66
65316;BMP280;51920;53.952;10.292;2023-06-14T10:35:34;101756.94;;;25.68
65316;BMP280;51920;53.952;10.292;2023-06-14T10:38:08;101753.94;;;25.90
65316;BMP280;51920;53.952;10.292;2023-06-14T10:40:36;101761.19;;;25.97
65316;BMP280;51920;53.952;10.292;2023-06-14T10:43:21;101753.03;;;25.93
65316;BMP280;51920;53.952;10.292;2023-06-14T10:48:41;101755.25;;;26.13
65316;BMP280;51920;53.952;10.292;2023-06-14T10:51:20;101767.78;;;26.42
65316;BMP280;51920;53.952;10.292;2023-06-14T10:53:49;101759.28;;;26.12
65316;BMP280;51920;53.952;10.292;2023-06-14T10:56:29;101760.38;;;25.54
65316;BMP280;51920;53.952;10.292;2023-06-14T10:58:57;101763.28;;;25.59
65316;BMP280;51920;53.952;10.292;2023-06-14T11:01:41;101747.72;;;25.34
65316;BMP280;51920;53.952;10.292;2023-06-14T11:04:09;101751.22;;;25.72
65316;BMP280;51920;53.952;10.292;2023-06-14T11:09:44;101740.34;;;24.85
65316;BMP280;51920;53.952;10.292;2023-06-14T11:12:14;101743.28;;;24.82
65316;BMP280;51920;53.952;10.292;2023-06-14T11:14:42;101740.38;;;25.31
65316;BMP280;51920;53.952;10.292;2023-06-14T11:17:08;101734.22;;;25.37
65316;BMP280;51920;53.952;10.292;2023-06-14T11:19:35;101739.88;;;25.33
65316;BMP280;51920;53.952;10.292;2023-06-14T11:22:03;101730.16;;;25.47
65316;BMP280;51920;53.952;10.292;2023-06-14T11:24:29;101725.53;;;25.53
65316;BMP280;51920;53.952;10.292;2023-06-14T11:26:56;101723.56;;;25.35
65316;BMP280;51920;53.952;10.292;2023-06-14T11:29:23;101720.03;;;25.44
65316;BMP280;51920;53.952;10.292;2023-06-14T11:31:50;101723.81;;;25.65
65316;BMP280;51920;53.952;10.292;2023-06-14T11:34:17;101722.75;;;25.53
65316;BMP280;51920;53.952;10.292;2023-06-14T11:36:45;101715.31;;;25.59
65316;BMP280;51920;53.952;10.292;2023-06-14T11:39:12;101723.09;;;25.46
65316;BMP280;51920;53.952;10.292;2023-06-14T11:41:43;101717.53;;;25.46
65316;BMP280;51920;53.952;10.292;2023-06-14T11:44:11;101721.22;;;25.43
65316;BMP280;51920;53.952;10.292;2023-06-14T11:46:38;101717.53;;;25.27
65316;BMP280;51920;53.952;10.292;2023-06-14T11:49:06;101706.19;;;25.16
65316;BMP280;51920;53.952;10.292;2023-06-14T11:51:34;101712.63;;;25.31
65316;BMP280;51920;53.952;10.292;2023-06-14T11:54:02;101717.09;;;24.83
65316;BMP280;51920;53.952;10.292;2023-06-14T11:56:32;101698.91;;;24.73
65316;BMP280;51920;53.952;10.292;2023-06-14T11:59:03;101709.41;;;24.78
65316;BMP280;51920;53.952;10.292;2023-06-14T12:01:35;101702.31;;;24.77
65316;BMP280;51920;53.952;10.292;2023-06-14T12:04:01;101700.50;;;25.01
65316;BMP280;51920;53.952;10.292;2023-06-14T12:06:30;101698.75;;;25.22
65316;BMP280;51920;53.952;10.292;2023-06-14T12:09:04;101689.22;;;25.23
65316;BMP280;51920;53.952;10.292;2023-06-14T12:11:34;101694.00;;;25.04
65316;BMP280;51920;53.952;10.292;2023-06-14T12:14:03;101696.47;;;24.93
65316;BMP280;51920;53.952;10.292;2023-06-14T12:16:34;101694.31;;;24.97
65316;BMP280;51920;53.952;10.292;2023-06-14T12:19:15;101684.44;;;24.87
65316;BMP280;51920;53.952;10.292;2023-06-14T12:21:45;101692.31;;;24.89
65316;BMP280;51920;53.952;10.292;2023-06-14T12:24:14;101678.31;;;25.01
65316;BMP280;51920;53.952;10.292;2023-06-14T12:26:42;101687.38;;;24.93
65316;BMP280;51920;53.952;10.292;2023-06-14T12:29:09;101678.91;;;24.87
65316;BMP280;51920;53.952;10.292;2023-06-14T12:31:38;101680.91;;;24.96
65316;BMP280;51920;53.952;10.292;2023-06-14T12:34:05;101684.78;;;24.98
65316;BMP280;51920;53.952;10.292;2023-06-14T12:36:31;101682.31;;;24.91
65316;BMP280;51920;53.952;10.292;2023-06-14T12:38:58;101682.78;;;24.80
65316;BMP280;51920;53.952;10.292;2023-06-14T12:41:27;101682.78;;;24.80
65316;BMP280;51920;53.952;10.292;2023-06-14T12:43:54;101680.16;;;24.95
65316;BMP280;51920;53.952;10.292;2023-06-14T12:46:21;101680.59;;;24.94
65316;BMP280;51920;53.952;10.292;2023-06-14T12:48:48;101677.22;;;24.80
65316;BMP280;51920;53.952;10.292;2023-06-14T12:51:16;101686.00;;;24.88
65316;BMP280;51920;53.952;10.292;2023-06-14T12:53:43;101681.81;;;24.83
65316;BMP280;51920;53.952;10.292;2023-06-14T12:56:10;101682.88;;;24.58
65316;BMP280;51920;53.952;10.292;2023-06-14T12:58:37;101686.16;;;24.66
65316;BMP280;51920;53.952;10.292;2023-06-14T13:01:03;101683.22;;;24.60
65316;BMP280;51920;53.952;10.292;2023-06-14T13:03:30;101686.25;;;24.44
65316;BMP280;51920;53.952;10.292;2023-06-14T13:05:57;101679.94;;;24.44
65316;BMP280;51920;53.952;10.292;2023-06-14T13:08:23;101675.03;;;24.57
65316;BMP280;51920;53.952;10.292;2023-06-14T13:10:51;101678.13;;;24.68
65316;BMP280;51920;53.952;10.292;2023-06-14T13:13:17;101680.91;;;24.59
65316;BMP280;51920;53.952;10.292;2023-06-14T13:15:44;101679.66;;;24.42
65316;BMP280;51920;53.952;10.292;2023-06-14T13:18:12;101667.75;;;24.23
65316;BMP280;51920;53.952;10.292;2023-06-14T13:20:39;101669.44;;;24.29
65316;BMP280;51920;53.952;10.292;2023-06-14T13:23:06;101658.06;;;24.27
65316;BMP280;51920;53.952;10.292;2023-06-14T13:25:34;101667.88;;;24.19
65316;BMP280;51920;53.952;10.292;2023-06-14T13:28:01;101673.44;;;24.28
65316;BMP280;51920;53.952;10.292;2023-06-14T13:30:28;101670.50;;;24.13
65316;BMP280;51920;53.952;10.292;2023-06-14T13:32:54;101672.13;;;24.02
65316;BMP280;51920;53.952;10.292;2023-06-14T13:35:23;101670.66;;;24.19
65316;BMP280;51920;53.952;10.292;2023-06-14T13:37:50;101672.22;;;24.29
65316;BMP280;51920;53.952;10.292;2023-06-14T13:40:17;101661.72;;;24.06
65316;BMP280;51920;53.952;10.292;2023-06-14T13:42:46;101669.09;;;24.18
65316;BMP280;51920;53.952;10.292;2023-06-14T13:45:13;101663.69;;;24.05
65316;BMP280;51920;53.952;10.292;2023-06-14T13:47:40;101665.13;;;24.19
65316;BMP280;51920;53.952;10.292;2023-06-14T13:50:07;101664.75;;;23.99
65316;BMP280;51920;53.952;10.292;2023-06-14T13:52:34;101660.19;;;24.23
65316;BMP280;51920;53.952;10.292;2023-06-14T13:55:02;101664.19;;;24.13
65316;BMP280;51920;53.952;10.292;2023-06-14T13:57:29;101661.34;;;24.04
65316;BMP280;51920;53.952;10.292;2023-06-14T13:59:55;101660.91;;;24.05
65316;BMP280;51920;53.952;10.292;2023-06-14T14:02:37;101657.47;;;23.83
65316;BMP280;51920;53.952;10.292;2023-06-14T14:05:04;101657.38;;;24.05